createdAt,value
2023-03-27T00:02:14.595Z,99662.83
2023-03-27T00:04:42.705Z,99662.16
2023-03-27T00:07:10.530Z,99660.89
2023-03-27T00:09:39.344Z,99657.80
2023-03-27T00:12:07.133Z,99656.33
2023-03-27T00:14:36.414Z,99657.23
2023-03-27T00:17:05.264Z,99658.80
2023-03-27T00:19:34.004Z,99661.81
2023-03-27T00:22:02.003Z,99666.26
2023-03-27T00:24:29.807Z,99671.15
2023-03-27T00:26:58.269Z,99670.12
2023-03-27T00:29:25.980Z,99673.94
2023-03-27T00:31:54.037Z,99674.05
2023-03-27T00:34:21.905Z,99678.38
2023-03-27T00:36:51.310Z,99681.03
2023-03-27T00:39:19.448Z,99682.46
2023-03-27T00:41:48.761Z,99682.66
2023-03-27T00:44:23.940Z,99679.58
2023-03-27T00:46:55.375Z,99682.84
2023-03-27T00:49:28.024Z,99682.35
2023-03-27T00:51:59.018Z,99686.73
2023-03-27T00:54:31.824Z,99692.23
2023-03-27T00:57:05.316Z,99696.82
2023-03-27T00:59:39.452Z,99699.68
2023-03-27T01:02:09.365Z,99702.14
2023-03-27T01:04:38.649Z,99703.61
2023-03-27T01:07:08.560Z,99702.96
2023-03-27T01:09:36.622Z,99705.27
2023-03-27T01:12:19.699Z,99710.73
2023-03-27T01:14:53.562Z,99715.37
2023-03-27T01:17:30.178Z,99716.08
2023-03-27T01:20:17.840Z,99721.63
2023-03-27T01:22:52.691Z,99725.86
2023-03-27T01:25:58.542Z,99726.73
2023-03-27T01:28:29.752Z,99740.14
2023-03-27T01:31:30.613Z,99743.42
2023-03-27T01:34:32.292Z,99749.08
2023-03-27T01:37:15.781Z,99758.36
2023-03-27T01:40:07.702Z,99757.97
2023-03-27T01:42:51.019Z,99762.98
2023-03-27T01:46:04.015Z,99765.78
2023-03-27T01:48:48.232Z,99763.91
2023-03-27T01:51:39.704Z,99764.98
2023-03-27T01:54:37.440Z,99759.00
2023-03-27T01:57:28.917Z,99760.60
2023-03-27T02:00:17.386Z,99760.54
2023-03-27T02:02:57.972Z,99763.48
2023-03-27T02:05:32.682Z,99762.46
2023-03-27T02:08:10.555Z,99765.33
2023-03-27T02:10:45.602Z,99764.11
2023-03-27T02:13:21.599Z,99763.70
2023-03-27T02:15:51.698Z,99766.35
2023-03-27T02:18:29.282Z,99762.90
2023-03-27T02:20:57.310Z,99759.98
2023-03-27T02:23:30.823Z,99756.93
2023-03-27T02:26:00.159Z,99757.18
2023-03-27T02:28:53.065Z,99756.48
2023-03-27T02:32:00.693Z,99753.86
2023-03-27T02:34:34.620Z,99756.55
2023-03-27T02:37:19.475Z,99758.06
2023-03-27T02:40:16.958Z,99762.77
2023-03-27T02:43:00.730Z,99760.41
2023-03-27T02:45:40.516Z,99768.52
2023-03-27T02:48:34.329Z,99770.31
2023-03-27T02:51:25.467Z,99765.02
2023-03-27T02:54:03.276Z,99760.86
2023-03-27T02:56:38.478Z,99767.08
2023-03-27T02:59:15.897Z,99775.62
2023-03-27T03:01:45.540Z,99772.20
2023-03-27T03:04:42.017Z,99782.09
2023-03-27T03:07:30.158Z,99793.27
2023-03-27T03:09:58.358Z,99791.52
2023-03-27T03:12:26.084Z,99795.77
2023-03-27T03:14:56.535Z,99795.41
2023-03-27T03:17:24.490Z,99791.20
2023-03-27T03:19:53.812Z,99795.95
2023-03-27T03:22:21.607Z,99794.64
2023-03-27T03:24:49.361Z,99791.05
2023-03-27T03:27:21.216Z,99786.80
2023-03-27T03:29:57.954Z,99785.69
2023-03-27T03:32:30.448Z,99788.31
2023-03-27T03:34:58.824Z,99780.64
2023-03-27T03:37:28.729Z,99778.96
2023-03-27T03:39:58.236Z,99776.54
2023-03-27T03:42:26.090Z,99776.56
2023-03-27T03:44:53.881Z,99777.88
2023-03-27T03:47:22.871Z,99772.23
2023-03-27T03:49:51.014Z,99775.75
2023-03-27T03:52:19.116Z,99773.92
2023-03-27T03:54:47.080Z,99773.08
2023-03-27T03:57:15.291Z,99777.45
2023-03-27T03:59:44.128Z,99777.02
2023-03-27T04:02:45.628Z,99779.16
2023-03-27T04:05:15.563Z,99783.44
2023-03-27T04:07:43.672Z,99777.36
2023-03-27T04:10:30.298Z,99781.56
2023-03-27T04:12:59.568Z,99786.14
2023-03-27T04:15:30.613Z,99781.98
2023-03-27T04:18:21.797Z,99785.52
2023-03-27T04:20:50.118Z,99786.57
2023-03-27T04:23:20.338Z,99788.63
2023-03-27T04:25:49.854Z,99790.01
2023-03-27T04:28:22.684Z,99796.45
2023-03-27T04:30:58.614Z,99802.70
2023-03-27T04:33:46.607Z,99807.20
2023-03-27T04:36:33.180Z,99809.11
2023-03-27T04:39:04.991Z,99813.52
2023-03-27T04:41:33.052Z,99818.64
2023-03-27T04:44:00.898Z,99817.33
2023-03-27T04:46:29.292Z,99818.46
2023-03-27T04:49:02.299Z,99814.92
2023-03-27T04:52:07.002Z,99820.48
2023-03-27T04:54:35.610Z,99827.36
2023-03-27T04:57:03.773Z,99834.45
2023-03-27T04:59:32.280Z,99838.61
2023-03-27T05:02:23.300Z,99836.27
2023-03-27T05:05:04.830Z,99838.20
2023-03-27T05:07:35.866Z,99849.60
2023-03-27T05:10:05.861Z,99856.08
2023-03-27T05:12:33.699Z,99854.27
2023-03-27T05:15:06.364Z,99861.47
2023-03-27T05:17:44.425Z,99861.08
2023-03-27T05:20:16.979Z,99863.45
2023-03-27T05:22:45.604Z,99866.02
2023-03-27T05:25:25.109Z,99868.05
2023-03-27T05:27:54.293Z,99871.73
2023-03-27T05:30:24.044Z,99867.57
2023-03-27T05:32:59.555Z,99878.35
2023-03-27T05:35:30.714Z,99887.27
2023-03-27T05:37:59.365Z,99889.48
2023-03-27T05:40:32.260Z,99889.92
2023-03-27T05:43:00.515Z,99892.00
2023-03-27T05:45:29.940Z,99896.11
2023-03-27T05:47:59.945Z,99898.30
2023-03-27T05:50:32.543Z,99900.20
2023-03-27T05:53:01.623Z,99900.37
2023-03-27T05:55:38.308Z,99905.73
2023-03-27T05:58:07.446Z,99903.38
2023-03-27T06:00:36.637Z,99907.70
2023-03-27T06:03:05.129Z,99913.34
2023-03-27T06:05:52.598Z,99918.66
2023-03-27T06:08:20.843Z,99917.86
2023-03-27T06:10:48.989Z,99927.80
2023-03-27T06:13:24.315Z,99934.59
2023-03-27T06:15:56.423Z,99935.02
2023-03-27T06:18:34.983Z,99923.17
2023-03-27T06:21:03.340Z,99935.22
2023-03-27T06:23:31.979Z,99941.15
2023-03-27T06:25:59.776Z,99940.28
2023-03-27T06:28:28.678Z,99941.52
2023-03-27T06:30:57.904Z,99941.30
2023-03-27T06:33:33.214Z,99942.87
2023-03-27T06:36:05.433Z,99952.48
2023-03-27T06:38:37.403Z,99957.84
2023-03-27T06:41:05.821Z,99959.98
2023-03-27T06:43:58.508Z,99957.17
2023-03-27T06:46:47.059Z,99965.73
2023-03-27T06:49:18.830Z,99968.52
2023-03-27T06:51:47.237Z,99972.09
2023-03-27T06:54:15.747Z,99977.29
2023-03-27T06:56:47.121Z,99973.41
2023-03-27T06:59:16.859Z,99982.98
2023-03-27T07:01:46.615Z,99983.98
2023-03-27T07:04:28.252Z,99993.62
2023-03-27T07:07:03.128Z,99993.15
2023-03-27T07:09:33.636Z,99991.94
2023-03-27T07:12:04.860Z,99999.23
2023-03-27T07:14:32.977Z,100001.41
2023-03-27T07:17:01.321Z,100002.45
2023-03-27T07:19:35.305Z,100006.50
2023-03-27T07:22:07.616Z,100005.64
2023-03-27T07:24:36.504Z,100010.56
2023-03-27T07:27:04.746Z,100011.52
2023-03-27T07:29:35.248Z,100007.98
2023-03-27T07:32:08.163Z,100003.58
2023-03-27T07:34:46.486Z,100002.33
2023-03-27T07:37:23.842Z,99994.79
2023-03-27T07:40:16.532Z,100006.81
2023-03-27T07:42:53.725Z,100010.27
2023-03-27T07:45:22.738Z,100020.49
2023-03-27T07:47:51.485Z,100011.17
2023-03-27T07:50:22.327Z,100026.23
2023-03-27T07:52:51.170Z,100025.26
2023-03-27T07:55:19.652Z,100029.88
2023-03-27T07:58:01.521Z,100026.95
2023-03-27T08:00:35.330Z,100040.67
2023-03-27T08:03:14.067Z,100045.83
2023-03-27T08:05:56.577Z,100051.37
2023-03-27T08:08:26.607Z,100053.09
2023-03-27T08:11:01.049Z,100061.98
2023-03-27T08:13:32.782Z,100057.05
2023-03-27T08:16:05.293Z,100066.44
2023-03-27T08:18:33.421Z,100064.94
2023-03-27T08:21:03.336Z,100068.52
2023-03-27T08:23:33.816Z,100076.19
2023-03-27T08:26:20.982Z,100081.48
2023-03-27T08:28:56.272Z,100081.84
2023-03-27T08:31:27.992Z,100088.90
2023-03-27T08:33:59.386Z,100095.42
2023-03-27T08:36:29.289Z,100091.63
2023-03-27T08:38:57.209Z,100094.23
2023-03-27T08:41:49.696Z,100097.14
2023-03-27T08:44:24.524Z,100094.39
2023-03-27T08:47:33.762Z,100097.41
2023-03-27T08:50:27.636Z,100096.38
2023-03-27T08:53:17.422Z,100095.31
2023-03-27T08:55:46.242Z,100097.67
2023-03-27T08:58:21.775Z,100091.98
2023-03-27T09:01:04.818Z,100092.42
2023-03-27T09:03:41.808Z,100090.27
2023-03-27T09:06:20.134Z,100097.59
2023-03-27T09:09:04.069Z,100092.69
2023-03-27T09:12:06.133Z,100097.47
2023-03-27T09:14:43.486Z,100109.75
2023-03-27T09:17:27.473Z,100111.88
2023-03-27T09:20:10.129Z,100119.30
2023-03-27T09:22:44.271Z,100107.11
2023-03-27T09:25:51.030Z,100122.50
2023-03-27T09:29:01.684Z,100133.35
2023-03-27T09:31:44.127Z,100131.27
2023-03-27T09:34:15.752Z,100140.66
2023-03-27T09:36:45.437Z,100145.98
2023-03-27T09:39:21.770Z,100151.19
2023-03-27T09:42:09.189Z,100154.24
2023-03-27T09:44:42.477Z,100156.95
2023-03-27T09:47:16.545Z,100154.52
2023-03-27T09:49:50.212Z,100158.64
2023-03-27T09:52:40.886Z,100166.58
2023-03-27T09:55:31.060Z,100176.36
2023-03-27T09:58:41.103Z,100182.80
2023-03-27T10:01:34.539Z,100187.33
2023-03-27T10:04:21.934Z,100197.96
2023-03-27T10:07:02.597Z,100203.14
2023-03-27T10:10:13.937Z,100205.87
2023-03-27T10:13:02.488Z,100205.55
2023-03-27T10:15:41.920Z,100208.70
2023-03-27T10:18:34.792Z,100211.03
2023-03-27T10:21:31.612Z,100203.35
2023-03-27T10:24:04.400Z,100214.27
2023-03-27T10:26:53.675Z,100209.92
2023-03-27T10:29:34.944Z,100216.06
2023-03-27T10:32:05.874Z,100210.27
2023-03-27T10:35:00.164Z,100210.88
2023-03-27T10:37:51.446Z,100217.36
2023-03-27T10:40:39.949Z,100221.59
2023-03-27T10:43:18.150Z,100227.17
2023-03-27T10:45:51.511Z,100238.63
2023-03-27T10:48:38.468Z,100239.79
2023-03-27T10:51:13.959Z,100250.10
2023-03-27T10:54:06.024Z,100251.02
2023-03-27T10:57:02.777Z,100250.05
2023-03-27T11:02:36.020Z,100257.61
2023-03-27T11:03:47.561Z,100257.70
2023-03-27T11:05:21.362Z,100252.33
2023-03-27T11:07:57.301Z,100254.96
2023-03-27T11:10:29.022Z,100257.35
2023-03-27T11:13:10.065Z,100260.98
2023-03-27T11:15:44.370Z,100264.77
2023-03-27T11:18:40.896Z,100257.42
2023-03-27T11:21:14.464Z,100256.67
2023-03-27T11:24:25.094Z,100267.01
2023-03-27T11:27:26.905Z,100276.73
2023-03-27T11:30:08.396Z,100279.29
2023-03-27T11:33:07.539Z,100289.81
2023-03-27T11:35:44.891Z,100295.20
2023-03-27T11:38:38.634Z,100299.81
2023-03-27T11:41:14.676Z,100293.23
2023-03-27T11:43:43.806Z,100297.52
2023-03-27T11:47:03.913Z,100295.95
2023-03-27T11:50:01.917Z,100300.48
2023-03-27T11:52:46.814Z,100298.79
2023-03-27T11:55:32.842Z,100299.63
2023-03-27T11:58:32.315Z,100301.94
2023-03-27T12:01:21.915Z,100300.05
2023-03-27T12:04:16.900Z,100296.02
2023-03-27T12:07:35.469Z,100300.71
2023-03-27T12:10:13.377Z,100304.23
2023-03-27T12:13:40.539Z,100310.27
2023-03-27T12:16:24.491Z,100307.74
2023-03-27T12:19:17.290Z,100306.39
2023-03-27T12:22:21.005Z,100316.90
2023-03-27T12:25:15.544Z,100318.80
2023-03-27T12:28:22.860Z,100308.87
2023-03-27T12:31:44.857Z,100313.03
2023-03-27T12:34:21.923Z,100307.13
2023-03-27T12:36:52.433Z,100329.48
2023-03-27T12:39:25.541Z,100330.67
2023-03-27T12:41:54.215Z,100340.09
2023-03-27T12:44:32.303Z,100336.15
2023-03-27T12:47:26.316Z,100349.85
2023-03-27T12:50:20.482Z,100350.61
2023-03-27T12:52:51.908Z,100353.77
2023-03-27T12:55:31.028Z,100368.40
2023-03-27T12:58:01.428Z,100371.77
2023-03-27T13:01:00.690Z,100374.13
2023-03-27T13:04:04.401Z,100378.64
2023-03-27T13:06:50.958Z,100383.48
2023-03-27T13:09:42.176Z,100387.42
2023-03-27T13:12:46.433Z,100400.05
2023-03-27T13:15:37.542Z,100414.42
2023-03-27T13:18:36.148Z,100413.30
2023-03-27T13:21:07.663Z,100424.01
2023-03-27T13:24:10.561Z,100432.17
2023-03-27T13:27:09.145Z,100431.39
2023-03-27T13:29:39.259Z,100433.92
2023-03-27T13:32:35.571Z,100428.04
2023-03-27T13:35:23.423Z,100436.67
2023-03-27T13:37:51.945Z,100439.86
2023-03-27T13:40:35.651Z,100439.64
2023-03-27T13:43:33.894Z,100440.27
2023-03-27T13:46:24.535Z,100448.81
2023-03-27T13:49:33.039Z,100450.66
2023-03-27T13:52:33.333Z,100454.02
2023-03-27T13:55:06.019Z,100458.52
2023-03-27T13:58:16.190Z,100460.79
2023-03-27T14:01:38.242Z,100459.02
2023-03-27T14:04:36.166Z,100458.85
2023-03-27T14:07:36.558Z,100451.13
2023-03-27T14:10:46.052Z,100454.13
2023-03-27T14:13:23.049Z,100457.42
2023-03-27T14:16:10.353Z,100458.44
2023-03-27T14:19:15.619Z,100466.64
2023-03-27T14:21:56.569Z,100483.84
2023-03-27T14:24:38.391Z,100486.16
2023-03-27T14:27:22.728Z,100493.16
2023-03-27T14:30:07.724Z,100499.27
2023-03-27T14:32:36.994Z,100504.14
2023-03-27T14:35:05.804Z,100507.36
2023-03-27T14:37:42.026Z,100504.68
2023-03-27T14:40:34.775Z,100500.74
2023-03-27T14:43:07.249Z,100493.98
2023-03-27T14:45:39.465Z,100497.23
2023-03-27T14:48:22.275Z,100491.10
2023-03-27T14:50:55.758Z,100498.92
2023-03-27T14:53:28.610Z,100493.58
2023-03-27T14:56:20.891Z,100503.89
2023-03-27T14:59:11.751Z,100505.86
2023-03-27T15:01:54.574Z,100501.76
2023-03-27T15:04:24.705Z,100505.90
2023-03-27T15:06:56.188Z,100517.69
2023-03-27T15:10:12.503Z,100518.28
2023-03-27T15:12:59.067Z,100517.02
2023-03-27T15:15:43.132Z,100514.23
2023-03-27T15:18:17.708Z,100525.43
2023-03-27T15:20:47.754Z,100534.13
2023-03-27T15:23:26.315Z,100542.27
2023-03-27T15:26:03.744Z,100549.46
2023-03-27T15:28:40.769Z,100554.05
2023-03-27T15:31:09.844Z,100556.81
2023-03-27T15:33:47.186Z,100557.63
2023-03-27T15:36:27.909Z,100569.20
2023-03-27T15:39:00.850Z,100566.67
2023-03-27T15:41:28.568Z,100570.70
2023-03-27T15:44:11.106Z,100566.34
2023-03-27T15:46:54.079Z,100573.42
2023-03-27T15:49:28.887Z,100579.61
2023-03-27T15:51:58.814Z,100584.05
2023-03-27T15:54:26.493Z,100586.43
2023-03-27T15:57:10.948Z,100593.84
2023-03-27T15:59:52.413Z,100594.24
2023-03-27T16:02:28.867Z,100599.08
2023-03-27T16:04:58.620Z,100596.28
2023-03-27T16:07:48.444Z,100601.95
2023-03-27T16:10:31.012Z,100605.85
2023-03-27T16:13:02.864Z,100611.70
2023-03-27T16:15:32.693Z,100615.13
2023-03-27T16:18:17.534Z,100615.63
2023-03-27T16:20:45.392Z,100618.82
2023-03-27T16:23:13.289Z,100626.15
2023-03-27T16:25:41.491Z,100624.73
2023-03-27T16:28:11.026Z,100635.63
2023-03-27T16:30:41.191Z,100639.64
2023-03-27T16:33:15.580Z,100644.02
2023-03-27T16:35:45.652Z,100645.60
2023-03-27T16:38:14.328Z,100650.68
2023-03-27T16:40:44.917Z,100642.50
2023-03-27T16:43:12.631Z,100658.08
2023-03-27T16:45:40.620Z,100664.23
2023-03-27T16:48:10.190Z,100668.54
2023-03-27T16:50:37.945Z,100671.72
2023-03-27T16:53:09.269Z,100673.67
2023-03-27T16:55:36.987Z,100676.86
2023-03-27T16:58:12.586Z,100684.41
2023-03-27T17:00:49.004Z,100685.81
2023-03-27T17:03:19.765Z,100690.14
2023-03-27T17:05:55.075Z,100693.17
2023-03-27T17:08:25.755Z,100696.36
2023-03-27T17:10:53.519Z,100694.70
2023-03-27T17:13:21.276Z,100702.41
2023-03-27T17:15:50.877Z,100702.68
2023-03-27T17:18:18.761Z,100706.19
2023-03-27T17:20:46.799Z,100704.55
2023-03-27T17:23:15.306Z,100716.42
2023-03-27T17:25:44.255Z,100718.96
2023-03-27T17:28:12.528Z,100720.55
2023-03-27T17:30:56.650Z,100720.89
2023-03-27T17:33:31.825Z,100722.49
2023-03-27T17:35:59.638Z,100720.33
2023-03-27T17:38:27.788Z,100723.96
2023-03-27T17:40:55.845Z,100728.30
2023-03-27T17:43:23.508Z,100727.02
2023-03-27T17:45:51.633Z,100722.08
2023-03-27T17:48:19.645Z,100727.29
2023-03-27T17:50:52.062Z,100737.44
2023-03-27T17:53:29.870Z,100733.34
2023-03-27T17:55:58.017Z,100736.98
2023-03-27T17:58:26.596Z,100735.07
2023-03-27T18:00:56.457Z,100739.25
2023-03-27T18:03:24.267Z,100737.52
2023-03-27T18:05:52.423Z,100736.73
2023-03-27T18:08:20.897Z,100736.61
2023-03-27T18:10:50.527Z,100742.10
2023-03-27T18:13:19.028Z,100748.13
2023-03-27T18:15:47.079Z,100747.27
2023-03-27T18:18:15.034Z,100751.14
2023-03-27T18:20:42.995Z,100752.61
2023-03-27T18:23:10.710Z,100755.35
2023-03-27T18:25:43.060Z,100752.25
2023-03-27T18:28:11.593Z,100757.77
2023-03-27T18:30:40.138Z,100757.14
2023-03-27T18:33:08.912Z,100761.04
2023-03-27T18:35:37.187Z,100758.08
2023-03-27T18:38:06.104Z,100761.92
2023-03-27T18:40:33.884Z,100763.80
2023-03-27T18:43:01.773Z,100764.60
2023-03-27T18:45:30.135Z,100760.60
2023-03-27T18:47:58.223Z,100742.70
2023-03-27T18:50:26.223Z,100757.91
2023-03-27T18:52:54.493Z,100754.53
2023-03-27T18:55:22.477Z,100753.40
2023-03-27T18:57:50.662Z,100753.76
2023-03-27T19:00:20.479Z,100753.73
2023-03-27T19:02:48.524Z,100753.08
2023-03-27T19:05:17.874Z,100752.33
2023-03-27T19:07:45.853Z,100751.27
2023-03-27T19:10:14.123Z,100739.88
2023-03-27T19:12:46.287Z,100741.23
2023-03-27T19:15:33.064Z,100740.56
2023-03-27T19:18:19.619Z,100743.03
2023-03-27T19:21:14.318Z,100740.14
2023-03-27T19:24:02.267Z,100738.67
2023-03-27T19:26:37.423Z,100746.49
2023-03-27T19:29:05.668Z,100743.64
2023-03-27T19:31:34.112Z,100734.98
2023-03-27T19:34:02.313Z,100742.81
2023-03-27T19:36:31.143Z,100736.66
2023-03-27T19:38:59.032Z,100733.46
2023-03-27T19:41:27.197Z,100727.88
2023-03-27T19:43:54.874Z,100724.16
2023-03-27T19:46:24.549Z,100719.98
2023-03-27T19:48:54.182Z,100720.02
2023-03-27T19:51:43.974Z,100715.90
2023-03-27T19:54:24.551Z,100704.69
2023-03-27T19:56:53.751Z,100698.41
2023-03-27T19:59:30.330Z,100703.36
2023-03-27T20:01:59.307Z,100696.71
2023-03-27T20:04:27.102Z,100693.78
2023-03-27T20:06:59.092Z,100690.97
2023-03-27T20:09:26.815Z,100691.52
2023-03-27T20:11:55.006Z,100692.37
2023-03-27T20:14:22.807Z,100691.08
2023-03-27T20:16:51.184Z,100688.80
2023-03-27T20:19:20.848Z,100686.58
2023-03-27T20:21:50.285Z,100677.77
2023-03-27T20:24:18.664Z,100688.42
2023-03-27T20:26:53.233Z,100680.81
2023-03-27T20:29:24.762Z,100676.63
2023-03-27T20:31:52.546Z,100673.66
2023-03-27T20:34:22.383Z,100674.39
2023-03-27T20:36:53.274Z,100664.61
2023-03-27T20:39:47.351Z,100661.16
2023-03-27T20:42:17.749Z,100660.86
2023-03-27T20:44:46.894Z,100658.08
2023-03-27T20:47:15.387Z,100661.49
2023-03-27T20:49:47.184Z,100656.80
2023-03-27T20:52:19.321Z,100656.80
2023-03-27T20:54:47.918Z,100653.81
2023-03-27T20:57:17.317Z,100653.00
2023-03-27T20:59:47.553Z,100647.19
2023-03-27T21:02:18.122Z,100644.51
2023-03-27T21:04:46.781Z,100637.20
2023-03-27T21:07:15.865Z,100633.96
2023-03-27T21:09:45.771Z,100634.92
2023-03-27T21:12:13.740Z,100635.79
2023-03-27T21:14:41.508Z,100633.98
2023-03-27T21:17:12.475Z,100633.03
2023-03-27T21:19:40.514Z,100637.20
2023-03-27T21:22:08.490Z,100635.84
2023-03-27T21:24:36.241Z,100632.14
2023-03-27T21:27:04.435Z,100627.95
2023-03-27T21:29:32.371Z,100627.43
2023-03-27T21:32:00.042Z,100625.33
2023-03-27T21:34:27.905Z,100612.61
2023-03-27T21:36:56.096Z,100614.44
2023-03-27T21:39:23.826Z,100613.55
2023-03-27T21:41:51.600Z,100612.62
2023-03-27T21:44:19.372Z,100607.51
2023-03-27T21:46:47.041Z,100607.20
2023-03-27T21:49:14.768Z,100605.38
2023-03-27T21:51:42.550Z,100604.66
2023-03-27T21:54:10.319Z,100601.03
2023-03-27T21:56:38.099Z,100600.60
2023-03-27T21:59:05.869Z,100594.96
2023-03-27T22:01:33.686Z,100595.63
2023-03-27T22:04:02.462Z,100598.83
2023-03-27T22:06:30.420Z,100599.52
2023-03-27T22:08:58.150Z,100595.11
2023-03-27T22:11:26.063Z,100594.70
2023-03-27T22:13:54.832Z,100592.96
2023-03-27T22:16:22.834Z,100592.85
2023-03-27T22:18:50.694Z,100594.98
2023-03-27T22:21:22.294Z,100593.04
2023-03-27T22:23:51.411Z,100590.82
2023-03-27T22:26:21.109Z,100592.33
2023-03-27T22:28:49.034Z,100584.66
2023-03-27T22:31:17.010Z,100591.97
2023-03-27T22:33:44.905Z,100584.63
2023-03-27T22:36:12.868Z,100581.64
2023-03-27T22:38:41.768Z,100580.02
2023-03-27T22:41:11.999Z,100577.24
2023-03-27T22:43:40.389Z,100576.02
2023-03-27T22:46:16.535Z,100561.84
2023-03-27T22:48:44.660Z,100566.83
2023-03-27T22:51:13.860Z,100566.54
2023-03-27T22:53:41.760Z,100559.98
2023-03-27T22:56:09.940Z,100559.08
2023-03-27T22:58:37.687Z,100556.16
2023-03-27T23:01:06.735Z,100551.17
2023-03-27T23:03:34.503Z,100547.23
2023-03-27T23:06:02.774Z,100542.30
2023-03-27T23:08:31.833Z,100535.54
2023-03-27T23:11:04.677Z,100537.14
2023-03-27T23:13:34.728Z,100537.86
2023-03-27T23:16:02.747Z,100537.91
2023-03-27T23:18:30.731Z,100531.61
2023-03-27T23:21:04.780Z,100532.23
2023-03-27T23:23:34.874Z,100523.40
2023-03-27T23:26:03.886Z,100523.20
2023-03-27T23:28:37.258Z,100516.61
2023-03-27T23:31:06.359Z,100517.40
2023-03-27T23:33:38.984Z,100509.39
2023-03-27T23:36:13.073Z,100505.73
2023-03-27T23:38:42.120Z,100496.17
2023-03-27T23:41:12.414Z,100507.59
2023-03-27T23:43:40.383Z,100508.44
2023-03-27T23:46:10.881Z,100507.18
2023-03-27T23:48:40.609Z,100500.95
2023-03-27T23:51:10.329Z,100502.16
2023-03-27T23:53:38.331Z,100498.14
2023-03-27T23:56:07.190Z,100498.33
2023-03-27T23:58:37.444Z,100500.80
